sensor_id;sensor_type;location;lat;lon;timestamp;temperature;humidity
14521;DHT22;7347;50.844;4.490;2022-12-10T08:17:44;0.40;99.90
14521;DHT22;7347;50.844;4.490;2022-12-10T08:20:11;0.50;99.90
14521;DHT22;7347;50.844;4.490;2022-12-10T08:22:38;0.50;99.90
14521;DHT22;7347;50.844;4.490;2022-12-10T08:25:05;0.50;99.90
14521;DHT22;7347;50.844;4.490;2022-12-10T08:27:32;0.60;99.90
14521;DHT22;7347;50.844;4.490;2022-12-10T08:29:59;0.50;99.90
14521;DHT22;7347;50.844;4.490;2022-12-10T08:32:26;0.30;99.90
14521;DHT22;7347;50.844;4.490;2022-12-10T08:34:54;0.20;99.90
14521;DHT22;7347;50.844;4.490;2022-12-10T08:37:21;0.20;99.90
14521;DHT22;7347;50.844;4.490;2022-12-10T08:39:48;0.20;99.90
14521;DHT22;7347;50.844;4.490;2022-12-10T08:42:15;0.20;99.90
14521;DHT22;7347;50.844;4.490;2022-12-10T08:44:42;0.40;99.90
14521;DHT22;7347;50.844;4.490;2022-12-10T08:47:08;0.40;99.90
14521;DHT22;7347;50.844;4.490;2022-12-10T08:49:35;0.50;99.90
14521;DHT22;7347;50.844;4.490;2022-12-10T08:52:04;0.50;99.90
14521;DHT22;7347;50.844;4.490;2022-12-10T08:54:30;0.50;99.90
14521;DHT22;7347;50.844;4.490;2022-12-10T08:56:57;0.50;99.90
14521;DHT22;7347;50.844;4.490;2022-12-10T08:59:24;0.50;99.90
14521;DHT22;7347;50.844;4.490;2022-12-10T09:01:51;0.70;99.90
14521;DHT22;7347;50.844;4.490;2022-12-10T09:04:18;1.00;99.90
14521;DHT22;7347;50.844;4.490;2022-12-10T09:06:45;0.70;99.90
14521;DHT22;7347;50.844;4.490;2022-12-10T09:09:13;0.60;99.90
14521;DHT22;7347;50.844;4.490;2022-12-10T09:11:40;0.60;99.90
14521;DHT22;7347;50.844;4.490;2022-12-10T09:14:07;0.60;99.90
14521;DHT22;7347;50.844;4.490;2022-12-10T09:16:36;0.50;99.90
14521;DHT22;7347;50.844;4.490;2022-12-10T09:19:05;0.50;99.90
14521;DHT22;7347;50.844;4.490;2022-12-10T09:21:32;0.40;99.90
14521;DHT22;7347;50.844;4.490;2022-12-10T09:23:59;0.30;99.90
14521;DHT22;7347;50.844;4.490;2022-12-10T09:26:27;0.30;99.90
14521;DHT22;7347;50.844;4.490;2022-12-10T09:28:54;0.30;99.90
14521;DHT22;7347;50.844;4.490;2022-12-10T09:31:23;0.50;99.90
14521;DHT22;7347;50.844;4.490;2022-12-10T09:33:51;0.60;99.90
14521;DHT22;7347;50.844;4.490;2022-12-10T09:36:19;0.70;99.90
14521;DHT22;7347;50.844;4.490;2022-12-10T09:38:48;0.90;99.90
14521;DHT22;7347;50.844;4.490;2022-12-10T09:41:33;1.10;99.90
14521;DHT22;7347;50.844;4.490;2022-12-10T09:44:07;1.30;99.90
14521;DHT22;7347;50.844;4.490;2022-12-10T09:46:44;1.30;99.90
14521;DHT22;7347;50.844;4.490;2022-12-10T09:49:20;1.20;99.90
14521;DHT22;7347;50.844;4.490;2022-12-10T09:51:49;1.10;99.90
14521;DHT22;7347;50.844;4.490;2022-12-10T09:54:21;1.20;99.90
14521;DHT22;7347;50.844;4.490;2022-12-10T09:56:51;1.10;99.90
14521;DHT22;7347;50.844;4.490;2022-12-10T09:59:22;1.10;99.90
14521;DHT22;7347;50.844;4.490;2022-12-10T10:01:58;1.00;99.90
14521;DHT22;7347;50.844;4.490;2022-12-10T10:04:25;1.20;99.90
14521;DHT22;7347;50.844;4.490;2022-12-10T10:06:52;1.10;99.90
14521;DHT22;7347;50.844;4.490;2022-12-10T10:09:20;1.30;99.90
14521;DHT22;7347;50.844;4.490;2022-12-10T10:11:47;1.50;99.90
14521;DHT22;7347;50.844;4.490;2022-12-10T10:14:21;1.60;99.90
14521;DHT22;7347;50.844;4.490;2022-12-10T10:16:51;1.70;99.90
14521;DHT22;7347;50.844;4.490;2022-12-10T10:19:25;1.70;99.90
14521;DHT22;7347;50.844;4.490;2022-12-10T10:21:53;1.80;99.90
14521;DHT22;7347;50.844;4.490;2022-12-10T10:24:22;1.80;99.90
14521;DHT22;7347;50.844;4.490;2022-12-10T10:26:51;1.80;99.90
14521;DHT22;7347;50.844;4.490;2022-12-10T10:29:21;1.60;99.90
14521;DHT22;7347;50.844;4.490;2022-12-10T10:32:12;1.70;99.90
14521;DHT22;7347;50.844;4.490;2022-12-10T10:34:40;1.60;99.90
14521;DHT22;7347;50.844;4.490;2022-12-10T10:37:11;1.60;99.90
14521;DHT22;7347;50.844;4.490;2022-12-10T10:39:46;1.60;99.90
14521;DHT22;7347;50.844;4.490;2022-12-10T10:42:23;1.60;99.90
14521;DHT22;7347;50.844;4.490;2022-12-10T10:44:53;1.50;99.90
14521;DHT22;7347;50.844;4.490;2022-12-10T10:47:28;1.50;99.90
14521;DHT22;7347;50.844;4.490;2022-12-10T10:49:55;1.70;99.90
14521;DHT22;7347;50.844;4.490;2022-12-10T10:52:22;1.70;99.90
14521;DHT22;7347;50.844;4.490;2022-12-10T10:54:49;1.80;99.90
14521;DHT22;7347;50.844;4.490;2022-12-10T10:57:19;1.80;99.90
14521;DHT22;7347;50.844;4.490;2022-12-10T10:59:49;1.80;99.90
14521;DHT22;7347;50.844;4.490;2022-12-10T11:02:22;1.70;99.90
14521;DHT22;7347;50.844;4.490;2022-12-10T11:04:52;1.80;99.90
14521;DHT22;7347;50.844;4.490;2022-12-10T11:07:23;1.80;99.90
14521;DHT22;7347;50.844;4.490;2022-12-10T11:09:53;1.80;99.90
14521;DHT22;7347;50.844;4.490;2022-12-10T11:12:30;1.80;99.90
14521;DHT22;7347;50.844;4.490;2022-12-10T11:14:59;1.90;99.90
14521;DHT22;7347;50.844;4.490;2022-12-10T11:17:27;2.10;99.90
14521;DHT22;7347;50.844;4.490;2022-12-10T11:19:58;2.00;99.90
14521;DHT22;7347;50.844;4.490;2022-12-10T11:22:27;1.90;99.90
14521;DHT22;7347;50.844;4.490;2022-12-10T11:24:54;2.00;99.90
14521;DHT22;7347;50.844;4.490;2022-12-10T11:27:33;2.10;99.90
14521;DHT22;7347;50.844;4.490;2022-12-10T11:30:05;2.10;99.90
14521;DHT22;7347;50.844;4.490;2022-12-10T11:32:46;2.10;99.90
14521;DHT22;7347;50.844;4.490;2022-12-10T11:35:21;2.10;99.90
14521;DHT22;7347;50.844;4.490;2022-12-10T11:37:57;2.10;99.90
14521;DHT22;7347;50.844;4.490;2022-12-10T11:40:32;2.10;99.90
14521;DHT22;7347;50.844;4.490;2022-12-10T11:43:33;2.20;99.90
14521;DHT22;7347;50.844;4.490;2022-12-10T11:46:11;2.30;99.90
14521;DHT22;7347;50.844;4.490;2022-12-10T11:48:50;2.20;99.90
14521;DHT22;7347;50.844;4.490;2022-12-10T11:51:27;2.10;99.90
14521;DHT22;7347;50.844;4.490;2022-12-10T11:54:15;2.10;99.90
14521;DHT22;7347;50.844;4.490;2022-12-10T11:56:49;2.00;99.90
14521;DHT22;7347;50.844;4.490;2022-12-10T11:59:25;2.10;99.90
14521;DHT22;7347;50.844;4.490;2022-12-10T12:02:09;2.10;99.90
14521;DHT22;7347;50.844;4.490;2022-12-10T12:04:53;2.20;99.90
14521;DHT22;7347;50.844;4.490;2022-12-10T12:07:36;2.20;99.90
14521;DHT22;7347;50.844;4.490;2022-12-10T12:10:30;2.10;99.90
14521;DHT22;7347;50.844;4.490;2022-12-10T12:13:05;2.10;99.90
14521;DHT22;7347;50.844;4.490;2022-12-10T12:15:36;2.10;99.90
14521;DHT22;7347;50.844;4.490;2022-12-10T12:18:13;2.00;99.90
14521;DHT22;7347;50.844;4.490;2022-12-10T12:20:46;1.90;99.90
14521;DHT22;7347;50.844;4.490;2022-12-10T12:23:17;2.00;99.90
14521;DHT22;7347;50.844;4.490;2022-12-10T12:25:47;2.10;99.90
14521;DHT22;7347;50.844;4.490;2022-12-10T12:28:19;2.20;99.90
14521;DHT22;7347;50.844;4.490;2022-12-10T12:30:51;2.30;99.90
14521;DHT22;7347;50.844;4.490;2022-12-10T12:33:26;2.30;99.90
14521;DHT22;7347;50.844;4.490;2022-12-10T12:35:59;2.50;99.90
14521;DHT22;7347;50.844;4.490;2022-12-10T12:38:30;2.40;99.90
14521;DHT22;7347;50.844;4.490;2022-12-10T12:41:03;2.40;99.90
14521;DHT22;7347;50.844;4.490;2022-12-10T12:43:40;2.40;99.90
14521;DHT22;7347;50.844;4.490;2022-12-10T12:46:13;2.30;99.90
14521;DHT22;7347;50.844;4.490;2022-12-10T12:48:48;2.10;99.90
14521;DHT22;7347;50.844;4.490;2022-12-10T12:51:22;2.20;99.90
14521;DHT22;7347;50.844;4.490;2022-12-10T12:53:51;2.50;99.90
14521;DHT22;7347;50.844;4.490;2022-12-10T12:56:25;2.50;99.90
14521;DHT22;7347;50.844;4.490;2022-12-10T12:59:02;2.70;99.90
14521;DHT22;7347;50.844;4.490;2022-12-10T13:01:33;2.70;99.90
14521;DHT22;7347;50.844;4.490;2022-12-10T13:04:03;2.70;99.90
14521;DHT22;7347;50.844;4.490;2022-12-10T13:06:33;2.70;99.90
14521;DHT22;7347;50.844;4.490;2022-12-10T13:09:17;2.80;99.90
14521;DHT22;7347;50.844;4.490;2022-12-10T13:12:18;2.80;99.90
14521;DHT22;7347;50.844;4.490;2022-12-10T13:15:03;2.80;99.90
14521;DHT22;7347;50.844;4.490;2022-12-10T13:18:01;2.70;99.90
14521;DHT22;7347;50.844;4.490;2022-12-10T13:20:31;3.00;99.90
14521;DHT22;7347;50.844;4.490;2022-12-10T13:23:00;2.90;99.90
14521;DHT22;7347;50.844;4.490;2022-12-10T13:25:39;2.80;99.90
14521;DHT22;7347;50.844;4.490;2022-12-10T13:28:21;2.80;99.90
14521;DHT22;7347;50.844;4.490;2022-12-10T13:31:32;2.80;99.90
14521;DHT22;7347;50.844;4.490;2022-12-10T13:34:14;2.90;99.90
14521;DHT22;7347;50.844;4.490;2022-12-10T13:37:17;2.90;99.90
14521;DHT22;7347;50.844;4.490;2022-12-10T13:39:59;2.80;99.90
14521;DHT22;7347;50.844;4.490;2022-12-10T13:42:31;2.80;99.90
14521;DHT22;7347;50.844;4.490;2022-12-10T13:45:29;2.70;99.90
14521;DHT22;7347;50.844;4.490;2022-12-10T13:48:30;2.60;99.90
14521;DHT22;7347;50.844;4.490;2022-12-10T13:51:18;2.60;99.90
14521;DHT22;7347;50.844;4.490;2022-12-10T13:53:58;2.90;99.90
14521;DHT22;7347;50.844;4.490;2022-12-10T13:56:32;2.90;99.90
14521;DHT22;7347;50.844;4.490;2022-12-10T13:59:18;3.00;99.90
14521;DHT22;7347;50.844;4.490;2022-12-10T14:01:52;2.90;99.90
14521;DHT22;7347;50.844;4.490;2022-12-10T14:04:42;2.90;99.90
14521;DHT22;7347;50.844;4.490;2022-12-10T14:07:13;3.10;99.90
14521;DHT22;7347;50.844;4.490;2022-12-10T14:09:46;3.00;99.90
14521;DHT22;7347;50.844;4.490;2022-12-10T14:12:17;2.90;99.90
14521;DHT22;7347;50.844;4.490;2022-12-10T14:14:47;2.90;99.90
14521;DHT22;7347;50.844;4.490;2022-12-10T14:17:19;2.90;99.90
14521;DHT22;7347;50.844;4.490;2022-12-10T14:19:50;2.80;99.90
14521;DHT22;7347;50.844;4.490;2022-12-10T14:22:25;2.80;99.90
14521;DHT22;7347;50.844;4.490;2022-12-10T14:24:59;2.80;99.90
14521;DHT22;7347;50.844;4.490;2022-12-10T14:27:28;2.90;99.90
14521;DHT22;7347;50.844;4.490;2022-12-10T14:30:00;2.90;99.90
14521;DHT22;7347;50.844;4.490;2022-12-10T14:32:31;2.80;99.90
14521;DHT22;7347;50.844;4.490;2022-12-10T14:34:59;3.00;99.90
14521;DHT22;7347;50.844;4.490;2022-12-10T14:37:28;3.00;99.90
14521;DHT22;7347;50.844;4.490;2022-12-10T14:39:56;2.80;99.90
14521;DHT22;7347;50.844;4.490;2022-12-10T14:42:23;2.60;99.90
14521;DHT22;7347;50.844;4.490;2022-12-10T14:44:57;2.50;99.90
14521;DHT22;7347;50.844;4.490;2022-12-10T14:47:24;2.50;99.90
14521;DHT22;7347;50.844;4.490;2022-12-10T14:49:54;2.50;99.90
14521;DHT22;7347;50.844;4.490;2022-12-10T14:52:23;2.50;99.90
14521;DHT22;7347;50.844;4.490;2022-12-10T14:54:50;2.40;99.90
14521;DHT22;7347;50.844;4.490;2022-12-10T14:57:22;2.20;99.90
14521;DHT22;7347;50.844;4.490;2022-12-10T14:59:57;2.20;99.90
14521;DHT22;7347;50.844;4.490;2022-12-10T15:02:29;2.30;99.90
14521;DHT22;7347;50.844;4.490;2022-12-10T15:04:57;2.30;99.90
14521;DHT22;7347;50.844;4.490;2022-12-10T15:07:27;2.30;99.90
14521;DHT22;7347;50.844;4.490;2022-12-10T15:09:58;2.20;99.90
14521;DHT22;7347;50.844;4.490;2022-12-10T15:12:31;2.30;99.90
14521;DHT22;7347;50.844;4.490;2022-12-10T15:15:04;2.30;99.90
14521;DHT22;7347;50.844;4.490;2022-12-10T15:17:36;2.30;99.90
14521;DHT22;7347;50.844;4.490;2022-12-10T15:20:10;2.20;99.90
14521;DHT22;7347;50.844;4.490;2022-12-10T15:22:44;2.10;99.90
